sensor_id;sensor_type;location;lat;lon;timestamp;P1;durP1;ratioP1;P2;durP2;ratioP2
37349;SDS011;23231;52.358;4.926;2023-12-22T00:02:55;11.93;;;1.70;;
37349;SDS011;23231;52.358;4.926;2023-12-22T00:07:56;14.65;;;3.72;;
37349;SDS011;23231;52.358;4.926;2023-12-22T00:12:56;15.40;;;2.65;;
37349;SDS011;23231;52.358;4.926;2023-12-22T00:17:57;7.43;;;1.63;;
37349;SDS011;23231;52.358;4.926;2023-12-22T00:22:59;11.43;;;2.43;;
37349;SDS011;23231;52.358;4.926;2023-12-22T00:28:02;13.55;;;1.95;;
37349;SDS011;23231;52.358;4.926;2023-12-22T00:33:03;10.35;;;2.00;;
37349;SDS011;23231;52.358;4.926;2023-12-22T00:38:04;16.38;;;2.05;;
37349;SDS011;23231;52.358;4.926;2023-12-22T00:43:04;11.25;;;2.38;;
37349;SDS011;23231;52.358;4.926;2023-12-22T00:48:07;10.65;;;1.80;;
37349;SDS011;23231;52.358;4.926;2023-12-22T00:53:07;10.18;;;1.75;;
37349;SDS011;23231;52.358;4.926;2023-12-22T00:58:08;13.82;;;2.17;;
37349;SDS011;23231;52.358;4.926;2023-12-22T01:03:08;17.75;;;2.20;;
37349;SDS011;23231;52.358;4.926;2023-12-22T01:08:12;12.40;;;1.90;;
37349;SDS011;23231;52.358;4.926;2023-12-22T01:13:13;9.40;;;1.83;;
37349;SDS011;23231;52.358;4.926;2023-12-22T01:18:17;17.60;;;2.88;;
37349;SDS011;23231;52.358;4.926;2023-12-22T01:23:18;16.08;;;2.30;;
37349;SDS011;23231;52.358;4.926;2023-12-22T01:28:25;15.80;;;3.38;;
37349;SDS011;23231;52.358;4.926;2023-12-22T01:33:26;19.27;;;3.00;;
37349;SDS011;23231;52.358;4.926;2023-12-22T01:38:28;18.77;;;2.72;;
37349;SDS011;23231;52.358;4.926;2023-12-22T01:43:31;19.52;;;4.30;;
37349;SDS011;23231;52.358;4.926;2023-12-22T01:48:36;21.08;;;3.53;;
37349;SDS011;23231;52.358;4.926;2023-12-22T01:53:41;20.63;;;4.05;;
37349;SDS011;23231;52.358;4.926;2023-12-22T01:58:45;23.00;;;3.13;;
37349;SDS011;23231;52.358;4.926;2023-12-22T02:03:48;29.08;;;3.95;;
37349;SDS011;23231;52.358;4.926;2023-12-22T02:08:49;22.70;;;4.25;;
37349;SDS011;23231;52.358;4.926;2023-12-22T02:13:50;21.02;;;3.28;;
37349;SDS011;23231;52.358;4.926;2023-12-22T02:18:51;16.75;;;3.55;;
37349;SDS011;23231;52.358;4.926;2023-12-22T02:23:53;20.63;;;3.38;;
37349;SDS011;23231;52.358;4.926;2023-12-22T02:28:56;24.63;;;3.13;;
37349;SDS011;23231;52.358;4.926;2023-12-22T02:33:57;20.67;;;3.00;;
37349;SDS011;23231;52.358;4.926;2023-12-22T02:38:59;17.90;;;2.58;;
37349;SDS011;23231;52.358;4.926;2023-12-22T02:44:00;19.70;;;2.70;;
37349;SDS011;23231;52.358;4.926;2023-12-22T02:49:03;18.70;;;3.33;;
37349;SDS011;23231;52.358;4.926;2023-12-22T02:54:18;21.75;;;2.75;;
37349;SDS011;23231;52.358;4.926;2023-12-22T02:59:31;22.67;;;3.10;;
37349;SDS011;23231;52.358;4.926;2023-12-22T03:04:41;20.63;;;3.80;;
37349;SDS011;23231;52.358;4.926;2023-12-22T03:09:48;23.25;;;2.70;;
37349;SDS011;23231;52.358;4.926;2023-12-22T03:14:56;16.83;;;3.47;;
37349;SDS011;23231;52.358;4.926;2023-12-22T03:20:07;18.45;;;3.25;;
37349;SDS011;23231;52.358;4.926;2023-12-22T03:25:15;10.43;;;2.53;;
37349;SDS011;23231;52.358;4.926;2023-12-22T03:30:20;15.93;;;1.98;;
37349;SDS011;23231;52.358;4.926;2023-12-22T03:35:28;14.45;;;1.63;;
37349;SDS011;23231;52.358;4.926;2023-12-22T03:40:38;12.23;;;2.92;;
37349;SDS011;23231;52.358;4.926;2023-12-22T03:45:45;11.35;;;2.00;;
37349;SDS011;23231;52.358;4.926;2023-12-22T03:50:58;15.05;;;3.72;;
37349;SDS011;23231;52.358;4.926;2023-12-22T03:56:04;18.08;;;2.50;;
37349;SDS011;23231;52.358;4.926;2023-12-22T04:01:16;22.48;;;3.80;;
37349;SDS011;23231;52.358;4.926;2023-12-22T04:06:22;22.20;;;4.00;;
37349;SDS011;23231;52.358;4.926;2023-12-22T04:11:25;21.13;;;3.22;;
37349;SDS011;23231;52.358;4.926;2023-12-22T04:16:30;19.77;;;3.20;;
37349;SDS011;23231;52.358;4.926;2023-12-22T04:21:36;17.70;;;3.42;;
37349;SDS011;23231;52.358;4.926;2023-12-22T04:26:38;15.82;;;3.47;;
37349;SDS011;23231;52.358;4.926;2023-12-22T04:31:46;24.65;;;3.75;;
37349;SDS011;23231;52.358;4.926;2023-12-22T04:36:49;20.00;;;3.50;;
37349;SDS011;23231;52.358;4.926;2023-12-22T04:41:55;23.65;;;4.05;;
37349;SDS011;23231;52.358;4.926;2023-12-22T04:47:04;14.88;;;3.22;;
37349;SDS011;23231;52.358;4.926;2023-12-22T04:52:10;20.08;;;3.42;;
37349;SDS011;23231;52.358;4.926;2023-12-22T04:57:24;13.80;;;2.50;;
37349;SDS011;23231;52.358;4.926;2023-12-22T05:02:29;22.88;;;3.08;;
37349;SDS011;23231;52.358;4.926;2023-12-22T05:07:38;20.63;;;3.08;;
37349;SDS011;23231;52.358;4.926;2023-12-22T05:12:47;19.10;;;3.00;;
37349;SDS011;23231;52.358;4.926;2023-12-22T05:23:10;11.98;;;2.58;;
37349;SDS011;23231;52.358;4.926;2023-12-22T05:28:21;17.60;;;3.08;;
37349;SDS011;23231;52.358;4.926;2023-12-22T05:33:29;12.82;;;1.98;;
37349;SDS011;23231;52.358;4.926;2023-12-22T05:38:44;12.13;;;1.90;;
37349;SDS011;23231;52.358;4.926;2023-12-22T05:43:57;15.38;;;2.30;;
37349;SDS011;23231;52.358;4.926;2023-12-22T05:49:06;14.27;;;2.85;;
37349;SDS011;23231;52.358;4.926;2023-12-22T05:54:17;18.52;;;2.70;;
37349;SDS011;23231;52.358;4.926;2023-12-22T05:59:25;15.32;;;2.50;;
37349;SDS011;23231;52.358;4.926;2023-12-22T06:04:38;16.35;;;3.10;;
37349;SDS011;23231;52.358;4.926;2023-12-22T06:09:44;20.58;;;3.22;;
37349;SDS011;23231;52.358;4.926;2023-12-22T06:14:57;15.80;;;2.67;;
37349;SDS011;23231;52.358;4.926;2023-12-22T06:20:01;20.17;;;2.67;;
37349;SDS011;23231;52.358;4.926;2023-12-22T06:25:08;22.42;;;3.50;;
37349;SDS011;23231;52.358;4.926;2023-12-22T06:30:19;17.75;;;3.20;;
37349;SDS011;23231;52.358;4.926;2023-12-22T06:35:29;20.42;;;3.20;;
37349;SDS011;23231;52.358;4.926;2023-12-22T06:40:45;27.70;;;4.75;;
37349;SDS011;23231;52.358;4.926;2023-12-22T06:45:55;20.70;;;3.33;;
37349;SDS011;23231;52.358;4.926;2023-12-22T06:51:03;21.67;;;3.58;;
37349;SDS011;23231;52.358;4.926;2023-12-22T07:01:36;22.67;;;4.40;;
37349;SDS011;23231;52.358;4.926;2023-12-22T07:06:44;34.65;;;4.57;;
37349;SDS011;23231;52.358;4.926;2023-12-22T07:11:52;29.13;;;4.05;;
37349;SDS011;23231;52.358;4.926;2023-12-22T07:17:04;23.48;;;4.43;;
37349;SDS011;23231;52.358;4.926;2023-12-22T07:22:11;26.98;;;4.25;;
37349;SDS011;23231;52.358;4.926;2023-12-22T07:27:21;29.75;;;5.07;;
37349;SDS011;23231;52.358;4.926;2023-12-22T07:32:44;24.88;;;3.90;;
37349;SDS011;23231;52.358;4.926;2023-12-22T07:38:07;22.85;;;3.72;;
37349;SDS011;23231;52.358;4.926;2023-12-22T07:43:19;33.05;;;6.45;;
37349;SDS011;23231;52.358;4.926;2023-12-22T07:48:23;30.95;;;5.88;;
37349;SDS011;23231;52.358;4.926;2023-12-22T07:53:31;27.77;;;4.65;;
37349;SDS011;23231;52.358;4.926;2023-12-22T07:58:39;21.23;;;4.38;;
37349;SDS011;23231;52.358;4.926;2023-12-22T08:03:48;23.85;;;4.25;;
37349;SDS011;23231;52.358;4.926;2023-12-22T08:08:52;24.13;;;3.78;;
37349;SDS011;23231;52.358;4.926;2023-12-22T08:14:03;20.02;;;4.32;;
37349;SDS011;23231;52.358;4.926;2023-12-22T08:19:06;18.27;;;3.65;;
37349;SDS011;23231;52.358;4.926;2023-12-22T08:24:19;18.88;;;3.70;;
37349;SDS011;23231;52.358;4.926;2023-12-22T08:29:31;24.08;;;4.22;;
37349;SDS011;23231;52.358;4.926;2023-12-22T08:34:42;19.23;;;4.45;;
37349;SDS011;23231;52.358;4.926;2023-12-22T08:39:49;22.98;;;4.80;;
37349;SDS011;23231;52.358;4.926;2023-12-22T08:44:52;21.42;;;4.07;;
37349;SDS011;23231;52.358;4.926;2023-12-22T08:50:17;17.20;;;4.47;;
37349;SDS011;23231;52.358;4.926;2023-12-22T08:55:22;19.08;;;3.67;;
37349;SDS011;23231;52.358;4.926;2023-12-22T09:00:28;19.63;;;3.20;;
37349;SDS011;23231;52.358;4.926;2023-12-22T09:05:30;13.07;;;2.45;;
37349;SDS011;23231;52.358;4.926;2023-12-22T09:10:34;10.10;;;1.60;;
37349;SDS011;23231;52.358;4.926;2023-12-22T09:15:36;7.63;;;1.58;;
37349;SDS011;23231;52.358;4.926;2023-12-22T09:20:42;8.30;;;1.40;;
37349;SDS011;23231;52.358;4.926;2023-12-22T09:25:49;11.40;;;2.78;;
37349;SDS011;23231;52.358;4.926;2023-12-22T09:30:56;14.25;;;2.60;;
37349;SDS011;23231;52.358;4.926;2023-12-22T09:36:01;12.52;;;3.53;;
37349;SDS011;23231;52.358;4.926;2023-12-22T09:41:03;16.10;;;3.50;;
37349;SDS011;23231;52.358;4.926;2023-12-22T09:46:10;12.82;;;2.50;;
37349;SDS011;23231;52.358;4.926;2023-12-22T09:51:14;12.05;;;2.47;;
37349;SDS011;23231;52.358;4.926;2023-12-22T09:56:23;14.02;;;2.60;;
37349;SDS011;23231;52.358;4.926;2023-12-22T10:01:42;17.85;;;2.80;;
37349;SDS011;23231;52.358;4.926;2023-12-22T10:06:51;14.93;;;2.60;;
37349;SDS011;23231;52.358;4.926;2023-12-22T10:12:03;11.02;;;2.72;;
37349;SDS011;23231;52.358;4.926;2023-12-22T10:17:06;14.70;;;2.63;;
37349;SDS011;23231;52.358;4.926;2023-12-22T10:22:20;12.73;;;2.55;;
37349;SDS011;23231;52.358;4.926;2023-12-22T10:27:26;12.57;;;2.80;;
37349;SDS011;23231;52.358;4.926;2023-12-22T10:32:39;9.98;;;2.55;;
37349;SDS011;23231;52.358;4.926;2023-12-22T10:37:45;12.52;;;2.40;;
37349;SDS011;23231;52.358;4.926;2023-12-22T10:42:52;16.25;;;3.63;;
37349;SDS011;23231;52.358;4.926;2023-12-22T10:48:02;12.32;;;2.03;;
37349;SDS011;23231;52.358;4.926;2023-12-22T10:53:09;14.98;;;2.22;;
37349;SDS011;23231;52.358;4.926;2023-12-22T10:58:17;9.50;;;2.00;;
37349;SDS011;23231;52.358;4.926;2023-12-22T11:03:19;12.18;;;2.15;;
37349;SDS011;23231;52.358;4.926;2023-12-22T11:08:56;12.48;;;2.53;;
37349;SDS011;23231;52.358;4.926;2023-12-22T11:14:09;9.15;;;2.00;;
37349;SDS011;23231;52.358;4.926;2023-12-22T11:19:23;11.30;;;2.10;;
37349;SDS011;23231;52.358;4.926;2023-12-22T11:24:33;11.23;;;2.38;;
37349;SDS011;23231;52.358;4.926;2023-12-22T11:29:40;14.25;;;2.65;;
37349;SDS011;23231;52.358;4.926;2023-12-22T11:35:08;11.07;;;2.50;;
37349;SDS011;23231;52.358;4.926;2023-12-22T11:40:14;12.30;;;2.17;;
37349;SDS011;23231;52.358;4.926;2023-12-22T11:45:17;8.82;;;2.40;;
37349;SDS011;23231;52.358;4.926;2023-12-22T11:50:28;10.73;;;2.03;;
37349;SDS011;23231;52.358;4.926;2023-12-22T12:01:17;10.55;;;2.55;;
37349;SDS011;23231;52.358;4.926;2023-12-22T12:17:14;15.48;;;2.55;;
37349;SDS011;23231;52.358;4.926;2023-12-22T12:22:20;11.68;;;2.70;;
37349;SDS011;23231;52.358;4.926;2023-12-22T12:27:25;9.18;;;2.10;;
37349;SDS011;23231;52.358;4.926;2023-12-22T12:32:38;10.80;;;2.25;;
37349;SDS011;23231;52.358;4.926;2023-12-22T12:38:06;10.75;;;2.00;;
37349;SDS011;23231;52.358;4.926;2023-12-22T12:43:11;14.37;;;3.27;;
37349;SDS011;23231;52.358;4.926;2023-12-22T12:48:15;14.38;;;2.30;;
37349;SDS011;23231;52.358;4.926;2023-12-22T12:53:18;14.95;;;2.85;;
37349;SDS011;23231;52.358;4.926;2023-12-22T12:58:21;14.05;;;2.65;;
37349;SDS011;23231;52.358;4.926;2023-12-22T13:03:25;12.75;;;2.40;;
37349;SDS011;23231;52.358;4.926;2023-12-22T13:08:27;14.00;;;2.15;;
37349;SDS011;23231;52.358;4.926;2023-12-22T13:13:40;14.13;;;3.22;;
37349;SDS011;23231;52.358;4.926;2023-12-22T13:18:45;10.73;;;2.47;;
37349;SDS011;23231;52.358;4.926;2023-12-22T13:29:20;10.45;;;2.22;;
37349;SDS011;23231;52.358;4.926;2023-12-22T13:34:29;13.70;;;2.50;;
37349;SDS011;23231;52.358;4.926;2023-12-22T13:39:34;13.10;;;2.55;;
37349;SDS011;23231;52.358;4.926;2023-12-22T13:44:42;15.60;;;2.53;;
37349;SDS011;23231;52.358;4.926;2023-12-22T13:49:50;10.07;;;2.80;;
37349;SDS011;23231;52.358;4.926;2023-12-22T13:54:58;17.00;;;2.63;;
37349;SDS011;23231;52.358;4.926;2023-12-22T14:05:22;12.60;;;2.03;;
37349;SDS011;23231;52.358;4.926;2023-12-22T14:10:29;19.50;;;2.70;;
37349;SDS011;23231;52.358;4.926;2023-12-22T14:15:38;13.85;;;2.70;;
37349;SDS011;23231;52.358;4.926;2023-12-22T14:20:47;10.20;;;2.63;;
37349;SDS011;23231;52.358;4.926;2023-12-22T14:25:48;15.98;;;2.97;;
37349;SDS011;23231;52.358;4.926;2023-12-22T14:30:50;13.45;;;2.53;;
37349;SDS011;23231;52.358;4.926;2023-12-22T14:35:53;12.70;;;2.50;;
37349;SDS011;23231;52.358;4.926;2023-12-22T14:41:02;20.35;;;3.92;;
37349;SDS011;23231;52.358;4.926;2023-12-22T14:46:14;16.60;;;3.10;;
37349;SDS011;23231;52.358;4.926;2023-12-22T14:51:22;20.35;;;3.10;;
37349;SDS011;23231;52.358;4.926;2023-12-22T14:56:40;16.13;;;2.97;;
37349;SDS011;23231;52.358;4.926;2023-12-22T15:01:44;13.88;;;3.20;;
37349;SDS011;23231;52.358;4.926;2023-12-22T15:07:06;19.63;;;3.25;;
37349;SDS011;23231;52.358;4.926;2023-12-22T15:12:19;18.08;;;3.55;;
37349;SDS011;23231;52.358;4.926;2023-12-22T15:17:32;14.63;;;3.03;;
37349;SDS011;23231;52.358;4.926;2023-12-22T15:22:41;18.95;;;3.72;;
37349;SDS011;23231;52.358;4.926;2023-12-22T15:27:42;12.52;;;2.78;;
37349;SDS011;23231;52.358;4.926;2023-12-22T15:32:49;19.17;;;2.80;;
37349;SDS011;23231;52.358;4.926;2023-12-22T15:37:49;19.35;;;3.58;;
37349;SDS011;23231;52.358;4.926;2023-12-22T15:42:54;15.27;;;3.28;;
37349;SDS011;23231;52.358;4.926;2023-12-22T15:47:56;19.23;;;3.90;;
37349;SDS011;23231;52.358;4.926;2023-12-22T15:53:06;19.48;;;3.08;;
37349;SDS011;23231;52.358;4.926;2023-12-22T15:58:14;19.02;;;4.15;;
37349;SDS011;23231;52.358;4.926;2023-12-22T16:03:20;15.45;;;3.33;;
37349;SDS011;23231;52.358;4.926;2023-12-22T16:08:28;18.55;;;3.75;;
37349;SDS011;23231;52.358;4.926;2023-12-22T16:13:39;22.02;;;3.92;;
37349;SDS011;23231;52.358;4.926;2023-12-22T16:18:40;21.48;;;4.30;;
37349;SDS011;23231;52.358;4.926;2023-12-22T16:23:50;25.05;;;3.92;;
37349;SDS011;23231;52.358;4.926;2023-12-22T16:28:55;20.42;;;3.75;;
37349;SDS011;23231;52.358;4.926;2023-12-22T16:34:20;19.60;;;3.40;;
37349;SDS011;23231;52.358;4.926;2023-12-22T16:39:47;19.05;;;3.50;;
37349;SDS011;23231;52.358;4.926;2023-12-22T16:45:02;21.83;;;3.45;;
37349;SDS011;23231;52.358;4.926;2023-12-22T16:55:17;16.33;;;3.60;;
37349;SDS011;23231;52.358;4.926;2023-12-22T17:00:18;16.65;;;2.95;;
37349;SDS011;23231;52.358;4.926;2023-12-22T17:05:23;14.93;;;3.17;;
37349;SDS011;23231;52.358;4.926;2023-12-22T17:10:24;21.10;;;3.38;;
37349;SDS011;23231;52.358;4.926;2023-12-22T17:15:32;16.75;;;3.67;;
37349;SDS011;23231;52.358;4.926;2023-12-22T17:20:37;18.75;;;3.40;;
37349;SDS011;23231;52.358;4.926;2023-12-22T17:25:40;19.70;;;3.25;;
37349;SDS011;23231;52.358;4.926;2023-12-22T17:30:43;19.58;;;3.78;;
37349;SDS011;23231;52.358;4.926;2023-12-22T17:35:44;19.48;;;2.88;;
37349;SDS011;23231;52.358;4.926;2023-12-22T17:40:45;19.00;;;3.47;;
37349;SDS011;23231;52.358;4.926;2023-12-22T17:45:57;16.42;;;3.60;;
37349;SDS011;23231;52.358;4.926;2023-12-22T17:50:57;15.23;;;3.00;;
37349;SDS011;23231;52.358;4.926;2023-12-22T17:55:58;21.33;;;3.60;;
37349;SDS011;23231;52.358;4.926;2023-12-22T18:01:03;16.47;;;3.83;;
37349;SDS011;23231;52.358;4.926;2023-12-22T18:06:06;18.48;;;4.68;;
37349;SDS011;23231;52.358;4.926;2023-12-22T18:11:13;20.17;;;5.05;;
37349;SDS011;23231;52.358;4.926;2023-12-22T18:22:49;6.80;;;1.65;;
37349;SDS011;23231;52.358;4.926;2023-12-22T18:27:53;9.13;;;2.00;;
37349;SDS011;23231;52.358;4.926;2023-12-22T18:33:09;16.38;;;2.78;;
37349;SDS011;23231;52.358;4.926;2023-12-22T18:38:12;11.20;;;2.50;;
37349;SDS011;23231;52.358;4.926;2023-12-22T18:43:27;11.63;;;2.40;;
37349;SDS011;23231;52.358;4.926;2023-12-22T18:53:54;9.10;;;2.17;;
37349;SDS011;23231;52.358;4.926;2023-12-22T18:59:04;15.30;;;2.72;;
37349;SDS011;23231;52.358;4.926;2023-12-22T19:04:12;10.23;;;2.90;;
37349;SDS011;23231;52.358;4.926;2023-12-22T19:09:21;9.02;;;2.88;;
37349;SDS011;23231;52.358;4.926;2023-12-22T19:14:23;18.55;;;2.90;;
37349;SDS011;23231;52.358;4.926;2023-12-22T19:19:25;11.43;;;2.25;;
37349;SDS011;23231;52.358;4.926;2023-12-22T19:24:27;18.00;;;2.70;;
37349;SDS011;23231;52.358;4.926;2023-12-22T19:29:31;12.77;;;2.67;;
37349;SDS011;23231;52.358;4.926;2023-12-22T19:34:42;13.77;;;2.58;;
37349;SDS011;23231;52.358;4.926;2023-12-22T19:39:48;11.57;;;2.47;;
37349;SDS011;23231;52.358;4.926;2023-12-22T19:44:56;12.65;;;2.63;;
37349;SDS011;23231;52.358;4.926;2023-12-22T19:50:02;18.60;;;3.30;;
37349;SDS011;23231;52.358;4.926;2023-12-22T19:55:09;15.45;;;3.10;;
37349;SDS011;23231;52.358;4.926;2023-12-22T20:00:11;16.70;;;3.67;;
37349;SDS011;23231;52.358;4.926;2023-12-22T20:05:17;20.63;;;3.03;;
37349;SDS011;23231;52.358;4.926;2023-12-22T20:10:34;12.03;;;2.73;;
37349;SDS011;23231;52.358;4.926;2023-12-22T20:15:53;16.65;;;2.38;;
37349;SDS011;23231;52.358;4.926;2023-12-22T20:21:02;19.13;;;2.40;;
37349;SDS011;23231;52.358;4.926;2023-12-22T20:26:07;13.35;;;2.03;;
37349;SDS011;23231;52.358;4.926;2023-12-22T20:31:17;15.98;;;2.35;;
37349;SDS011;23231;52.358;4.926;2023-12-22T20:36:22;16.83;;;3.45;;
37349;SDS011;23231;52.358;4.926;2023-12-22T20:41:25;11.30;;;2.50;;
37349;SDS011;23231;52.358;4.926;2023-12-22T20:46:35;13.32;;;2.20;;
37349;SDS011;23231;52.358;4.926;2023-12-22T20:51:39;14.23;;;2.00;;
37349;SDS011;23231;52.358;4.926;2023-12-22T20:56:47;10.40;;;2.03;;
37349;SDS011;23231;52.358;4.926;2023-12-22T21:01:52;10.68;;;1.83;;
37349;SDS011;23231;52.358;4.926;2023-12-22T21:07:02;12.65;;;2.45;;
37349;SDS011;23231;52.358;4.926;2023-12-22T21:12:09;15.98;;;2.53;;
37349;SDS011;23231;52.358;4.926;2023-12-22T21:17:17;12.85;;;2.78;;
37349;SDS011;23231;52.358;4.926;2023-12-22T21:22:24;14.02;;;2.65;;
37349;SDS011;23231;52.358;4.926;2023-12-22T21:27:31;12.70;;;2.15;;
37349;SDS011;23231;52.358;4.926;2023-12-22T21:32:39;12.10;;;2.17;;
37349;SDS011;23231;52.358;4.926;2023-12-22T21:37:45;13.27;;;1.90;;
37349;SDS011;23231;52.358;4.926;2023-12-22T21:42:54;11.52;;;2.13;;
37349;SDS011;23231;52.358;4.926;2023-12-22T21:48:05;11.70;;;2.15;;
37349;SDS011;23231;52.358;4.926;2023-12-22T21:53:21;14.63;;;2.40;;
37349;SDS011;23231;52.358;4.926;2023-12-22T21:58:25;13.80;;;2.38;;
37349;SDS011;23231;52.358;4.926;2023-12-22T22:03:41;11.00;;;2.70;;
37349;SDS011;23231;52.358;4.926;2023-12-22T22:08:51;14.30;;;2.22;;
37349;SDS011;23231;52.358;4.926;2023-12-22T22:13:56;12.02;;;2.97;;
37349;SDS011;23231;52.358;4.926;2023-12-22T22:19:04;16.00;;;2.97;;
37349;SDS011;23231;52.358;4.926;2023-12-22T22:24:13;13.73;;;1.98;;
37349;SDS011;23231;52.358;4.926;2023-12-22T22:29:21;12.07;;;2.10;;
37349;SDS011;23231;52.358;4.926;2023-12-22T22:34:30;9.75;;;2.60;;
37349;SDS011;23231;52.358;4.926;2023-12-22T22:39:41;16.73;;;3.00;;
37349;SDS011;23231;52.358;4.926;2023-12-22T22:44:44;16.25;;;2.38;;
37349;SDS011;23231;52.358;4.926;2023-12-22T22:49:54;17.60;;;2.83;;
37349;SDS011;23231;52.358;4.926;2023-12-22T22:55:04;13.57;;;2.78;;
37349;SDS011;23231;52.358;4.926;2023-12-22T23:00:09;20.10;;;2.60;;
37349;SDS011;23231;52.358;4.926;2023-12-22T23:05:31;14.35;;;2.55;;
37349;SDS011;23231;52.358;4.926;2023-12-22T23:10:36;13.75;;;2.35;;
37349;SDS011;23231;52.358;4.926;2023-12-22T23:15:43;15.25;;;3.78;;
37349;SDS011;23231;52.358;4.926;2023-12-22T23:20:53;11.90;;;2.08;;
37349;SDS011;23231;52.358;4.926;2023-12-22T23:26:02;14.20;;;2.15;;
37349;SDS011;23231;52.358;4.926;2023-12-22T23:31:07;9.45;;;2.10;;
37349;SDS011;23231;52.358;4.926;2023-12-22T23:36:18;12.55;;;1.90;;
37349;SDS011;23231;52.358;4.926;2023-12-22T23:41:23;7.88;;;1.92;;
37349;SDS011;23231;52.358;4.926;2023-12-22T23:46:30;9.52;;;1.48;;
37349;SDS011;23231;52.358;4.926;2023-12-22T23:51:37;8.65;;;1.75;;
37349;SDS011;23231;52.358;4.926;2023-12-22T23:56:42;9.53;;;1.37;;
